• Join FlightAware (Why Join?)
  • Login
  • US Flag 
06:37AM EST


 

Airport Tracker/Info


-or-


 

Live Flight TrackerFlight Track Log ✈ FSR411 ✈ 02-Jun-2013 ✈ KCMI - KPDK

Flight Track Log - Related Links

Times and Time Zones

All times are in EDT time to prevent confusion due to time zone crossing. See the FSR411 flight status page for this flight to view local times or setup timezone preferences in your user account.

Time Position Orientation Groundspeed Altitude Reporting Facility
EDT Latitude Longitude Course Direction KTS MPH feet Rate Location/Type
06:03AM 40.0758 -88.3511 179° South 181 208 4,800  Level Chicago Center
06:04AM 40.0089 -88.3497 179° South 269 310 6,900 2,400 Climbing Chicago Center
06:05AM 39.9386 -88.2964 150° Southeast 294 338 9,600 1,860 Climbing Chicago Center
06:06AM 39.8408 -88.2303 153° Southeast 335 386 10,900 2,100 Climbing Indianapolis Center
06:07AM 39.7444 -88.1653 153° Southeast 380 437 14,200 3,240 Climbing Indianapolis Center
06:08AM 39.6486 -88.0861 148° Southeast 412 474 17,500 3,060 Climbing Indianapolis Center
06:09AM 39.5533 -87.9925 143° Southeast 431 496 20,400 2,700 Climbing Indianapolis Center
06:10AM 39.4500 -87.9089 148° Southeast 436 502 23,000 2,280 Climbing Indianapolis Center
06:11AM 39.3322 -87.8367 155° Southeast 455 524 25,100 2,040 Climbing Indianapolis Center
06:12AM 39.2139 -87.7586 153° Southeast 471 542 27,200 1,920 Climbing Indianapolis Center
06:13AM 39.0939 -87.6808 153° Southeast 479 551 29,000 1,860 Climbing Indianapolis Center
06:14AM 38.9742 -87.6022 153° Southeast 481 554 31,000 1,740 Climbing Indianapolis Center
06:15AM 38.8558 -87.5267 154° Southeast 476 548 32,600 1,560 Climbing Indianapolis Center
06:16AM 38.7367 -87.4492 153° Southeast 476 548 34,200 1,860 Climbing Indianapolis Center
06:17AM 38.6208 -87.3744 153° Southeast 467 537 36,400 2,100 Climbing Indianapolis Center
06:18AM 38.5153 -87.3081 154° Southeast 428 493 38,500 1,560 Climbing Indianapolis Center
06:19AM 38.4131 -87.2433 154° Southeast 413 475 39,600 840 Climbing Indianapolis Center
06:20AM 38.3158 -87.1789 153° Southeast 423 487 40,200 540 Climbing Indianapolis Center
06:21AM 38.2108 -87.1139 154° Southeast 424 488 40,700 360 Climbing Indianapolis Center
06:22AM 38.1006 -87.0447 154° Southeast 430 495 41,000 120 Climbing Indianapolis Center
06:23AM 37.9892 -86.9747 154° Southeast 446 513 41,000  Level Indianapolis Center
06:24AM 37.8739 -86.9019 154° Southeast 457 526 41,000  Level Indianapolis Center
06:25AM 37.7592 -86.8319 154° Southeast 455 524 41,000  Level Indianapolis Center
06:26AM 37.6447 -86.7614 154° Southeast 457 526 41,000  Level Indianapolis Center
06:27AM 37.5164 -86.6822 154° Southeast 454 522 41,000  Level Indianapolis Center
06:28AM 37.4014 -86.6111 154° Southeast 452 520 41,000  Level Indianapolis Center
06:29AM 37.2869 -86.5394 154° Southeast 451 519 41,000  Level Indianapolis Center
06:30AM 37.1717 -86.4697 154° Southeast 452 520 41,000  Level Indianapolis Center
06:31AM 37.0561 -86.3986 154° Southeast 455 524 41,000  Level Indianapolis Center
06:32AM 37.0392 -86.3911 161° South 453 521 41,000  Level Memphis Center
06:33AM 36.9144 -86.4000 183° South 413 475 41,000  Level Memphis Center
06:34AM 36.8097 -86.4492 201° Southwest 397 457 41,000  Level Memphis Center
06:35AM 36.7003 -86.4753 191° South 403 464 41,000  Level Memphis Center
06:36AM 36.5839 -86.4886 185° South 419 482 41,000  Level Memphis Center
06:37AM 36.4697 -86.4992 184° South 419 482 41,000  Level Memphis Center
06:38AM 36.3636 -86.5119 186° South 425 489 41,000  Level Memphis Center
06:39AM 36.2433 -86.5278 186° South 425 489 41,000  Level Memphis Center
06:40AM 36.1272 -86.5461 187° South 425 489 41,000  Level Memphis Center
06:41AM 36.0050 -86.5800 193° South 420 483 41,000  Level Memphis Center
06:42AM 35.8981 -86.6233 198° South 407 468 41,000  Level Memphis Center
06:43AM 35.7250 -86.6939 198° South 391 450 41,000  Level Atlanta Center
06:44AM 35.6217 -86.7442 202° Southwest 391 450 41,000  Level Atlanta Center
06:45AM 35.5203 -86.7994 204° Southwest 397 457 41,000  Level Atlanta Center
06:46AM 35.4189 -86.8572 205° Southwest 402 463 41,000  Level Atlanta Center
06:47AM 35.3283 -86.8950 199° South 402 463 41,000  Level Atlanta Center
06:48AM 35.2097 -86.8808 174° South 407 468 41,000  Level Atlanta Center
06:49AM 35.1097 -86.7808 141° Southeast 415 478 41,000 -600 Level Atlanta Center
06:50AM 35.0208 -86.6536 130° Southeast 441 507 39,900 -1,800 Descending Atlanta Center
06:51AM 34.9378 -86.5269 129° Southeast 471 542 37,500 -2,400 Descending Atlanta Center
06:52AM 34.8758 -86.3858 118° Southeast 471 542 35,200 -2,340 Descending Atlanta Center
06:53AM 34.8097 -86.2422 119° Southeast 476 548 32,900 -2,460 Descending Atlanta Center
06:54AM 34.7453 -86.1017 119° Southeast 481 554 30,300 -2,820 Descending Atlanta Center
06:55AM 34.6789 -85.9611 120° Southeast 481 554 27,300 -3,240 Descending Atlanta Center
06:56AM 34.6017 -85.8078 121° Southeast 486 559 23,900 -3,240 Descending Atlanta Center
06:57AM 34.5347 -85.6753 121° Southeast 472 543 20,900 -2,760 Descending Atlanta Center
06:58AM 34.4717 -85.5506 121° Southeast 452 520 18,400 -2,520 Descending Atlanta Center
06:59AM 34.4378 -85.4189 107° East 412 474 15,900 -2,520 Descending Atlanta Center
07:00AM 34.4203 -85.2853 99° East 412 474 13,400 -2,400 Descending Atlanta Center
07:01AM 34.4028 -85.1617 100° East 386 444 11,100 -2,100 Descending Atlanta Center
07:02AM 34.3828 -85.0456 102° East 362 417 9,300 -1,560 Descending Atlanta Center
07:03AM 34.3608 -84.9397 104° East 346 398 8,000 -660 Descending Atlanta Center
07:04AM 34.3281 -84.8489 114° Southeast 306 352 8,000  Level Atlanta Center
07:05AM 34.2889 -84.7603 118° Southeast 295 339 8,000  Level Atlanta Center
07:06AM 34.2414 -84.6947 131° Southeast 295 339 8,000 -480 Level Atlanta Center
07:07AM 34.1872 -84.6289 135° Southeast 280 322 7,100 -1,320 Descending Atlanta Center
07:08AM 34.1522 -84.5533 119° Southeast 262 302 5,400 -1,500 Descending Atlanta Center
07:09AM 34.1169 -84.4806 120° Southeast 257 296 4,200 -1,200 Descending Atlanta Center
07:10AM 34.0858 -84.4100 118° Southeast 246 283 3,100 -600 Descending Atlanta Center
07:11AM 34.0631 -84.3322 109° East 234 269 3,000 -60 Descending Atlanta Center
07:14AM 33.9833 -84.2500 139° Southeast 183 211 3,000 -180 Level Atlanta TRACON
07:14AM 33.9500 -84.2667 203° Southwest 122 140 2,500 -600 Descending Atlanta TRACON
07:16AM 33.9167 -84.2833 203° Southwest 133 153 1,800 -660 Descending Atlanta TRACON
07:18AM 33.8756 -84.3020 176° South  Level Estimated
07:25AM 33.8756 -84.3020 176° South  Level Estimated